createdAt,value
2023-02-19T00:02:00.497Z,101073.59
2023-02-19T00:04:29.529Z,101070.53
2023-02-19T00:06:57.491Z,101086.28
2023-02-19T00:09:25.218Z,101084.41
2023-02-19T00:11:52.859Z,101092.59
2023-02-19T00:14:22.854Z,101092.59
2023-02-19T00:16:51.068Z,101089.34
2023-02-19T00:19:21.174Z,101089.94
2023-02-19T00:21:53.108Z,101089.75
2023-02-19T00:24:21.553Z,101079.09
2023-02-19T00:26:49.303Z,101086.47
2023-02-19T00:29:19.312Z,101082.78
2023-02-19T00:31:47.440Z,101092.19
2023-02-19T00:34:15.801Z,101087.91
2023-02-19T00:39:34.443Z,101087.47
2023-02-19T00:42:02.470Z,101092.19
2023-02-19T00:44:30.732Z,101090.78
2023-02-19T00:46:58.421Z,101086.88
2023-02-19T00:49:26.091Z,101082.16
2023-02-19T00:51:54.925Z,101085.63
2023-02-19T00:54:24.123Z,101081.16
2023-02-19T00:56:53.203Z,101088.09
2023-02-19T00:59:21.724Z,101088.09
2023-02-19T01:01:49.752Z,101084.44
2023-02-19T01:04:17.538Z,101064.81
2023-02-19T01:09:34.429Z,101093.81
2023-02-19T01:14:51.990Z,101086.06
2023-02-19T01:17:20.227Z,101097.50
2023-02-19T01:19:48.019Z,101099.94
2023-02-19T01:22:15.688Z,101102.59
2023-02-19T01:24:44.247Z,101109.13
2023-02-19T01:27:13.545Z,101105.25
2023-02-19T01:29:41.189Z,101106.69
2023-02-19T01:32:09.903Z,101101.19
2023-02-19T01:34:37.690Z,101109.34
2023-02-19T01:37:05.761Z,101114.25
2023-02-19T01:39:34.107Z,101117.13
2023-02-19T01:42:03.111Z,101107.09
2023-02-19T01:45:08.561Z,101106.06
2023-02-19T01:47:37.604Z,101118.34
2023-02-19T01:50:05.708Z,101119.97
2023-02-19T01:52:36.240Z,101121.41
2023-02-19T01:55:07.882Z,101123.03
2023-02-19T01:57:43.610Z,101111.59
2023-02-19T02:00:13.724Z,101124.47
2023-02-19T02:02:47.331Z,101115.50
2023-02-19T02:05:22.829Z,101115.69
2023-02-19T02:08:09.144Z,101113.84
2023-02-19T02:10:36.843Z,101112.22
2023-02-19T02:13:04.620Z,101117.53
2023-02-19T02:15:41.670Z,101111.00
2023-02-19T02:18:22.864Z,101126.50
2023-02-19T02:21:09.837Z,101127.13
2023-02-19T02:23:52.722Z,101125.28
2023-02-19T02:26:32.802Z,101125.50
2023-02-19T02:29:31.779Z,101124.06
2023-02-19T02:32:07.517Z,101121.59
2023-02-19T02:34:42.416Z,101124.88
2023-02-19T02:40:00.884Z,101126.53
2023-02-19T02:42:29.052Z,101124.25
2023-02-19T02:45:14.902Z,101124.03
2023-02-19T02:47:49.304Z,101126.91
2023-02-19T02:50:21.754Z,101123.44
2023-02-19T02:53:11.842Z,101118.94
2023-02-19T02:55:44.040Z,101122.41
2023-02-19T02:58:14.036Z,101126.69
2023-02-19T03:01:04.822Z,101122.19
2023-02-19T03:03:37.629Z,101129.56
2023-02-19T03:06:09.077Z,101130.59
2023-02-19T03:08:42.144Z,101135.69
2023-02-19T03:11:30.238Z,101133.44
2023-02-19T03:14:21.641Z,101141.22
2023-02-19T03:17:09.964Z,101133.63
2023-02-19T03:19:47.120Z,101133.44
2023-02-19T03:22:19.929Z,101138.75
2023-02-19T03:28:02.367Z,101142.84
2023-02-19T03:30:34.487Z,101135.28
2023-02-19T03:33:08.237Z,101138.94
2023-02-19T03:38:38.388Z,101139.59
2023-02-19T03:41:11.536Z,101144.03
2023-02-19T03:43:43.621Z,101145.28
2023-02-19T03:46:16.044Z,101151.63
2023-02-19T03:48:50.198Z,101150.81
2023-02-19T03:51:32.520Z,101162.84
2023-02-19T03:54:08.843Z,101168.56
2023-02-19T03:56:44.840Z,101171.84
2023-02-19T03:59:17.877Z,101184.09
2023-02-19T04:01:50.560Z,101182.66
2023-02-19T04:04:22.239Z,101178.19
2023-02-19T04:06:56.647Z,101191.03
2023-02-19T04:09:28.416Z,101196.34
2023-02-19T04:11:57.042Z,101194.69
2023-02-19T04:14:29.928Z,101191.41
2023-02-19T04:17:02.623Z,101191.03
2023-02-19T04:19:34.488Z,101193.88
2023-02-19T04:22:06.641Z,101194.69
2023-02-19T04:24:38.466Z,101196.72
2023-02-19T04:27:08.003Z,101204.09
2023-02-19T04:29:37.160Z,101193.06
2023-02-19T04:32:06.071Z,101200.84
2023-02-19T04:34:34.572Z,101206.97
2023-02-19T04:37:03.728Z,101206.97
2023-02-19T04:39:31.379Z,101210.22
2023-02-19T04:41:59.782Z,101213.28
2023-02-19T04:44:27.491Z,101219.22
2023-02-19T04:46:55.255Z,101219.63
2023-02-19T04:49:23.761Z,101223.28
2023-02-19T04:51:51.449Z,101236.78
2023-02-19T04:54:20.478Z,101225.53
2023-02-19T04:56:48.730Z,101222.06
2023-02-19T04:59:16.394Z,101233.50
2023-02-19T05:01:44.188Z,101233.50
2023-02-19T05:04:12.608Z,101235.97
2023-02-19T05:06:40.325Z,101240.44
2023-02-19T05:09:08.217Z,101236.38
2023-02-19T05:11:37.541Z,101240.88
2023-02-19T05:14:05.251Z,101242.50
2023-02-19T05:16:33.140Z,101237.78
2023-02-19T05:19:01.515Z,101248.63
2023-02-19T05:21:29.262Z,101244.13
2023-02-19T05:23:56.918Z,101255.34
2023-02-19T05:26:25.443Z,101267.81
2023-02-19T05:28:54.644Z,101259.84
2023-02-19T05:31:22.617Z,101264.34
2023-02-19T05:33:53.080Z,101265.16
2023-02-19T05:36:22.503Z,101259.84
2023-02-19T05:38:55.526Z,101271.13
2023-02-19T05:41:25.183Z,101276.00
2023-02-19T05:43:54.454Z,101279.91
2023-02-19T05:46:24.884Z,101273.13
2023-02-19T05:48:54.158Z,101276.81
2023-02-19T05:51:25.555Z,101279.25
2023-02-19T05:53:53.430Z,101284.97
2023-02-19T05:56:29.529Z,101287.44
2023-02-19T05:58:58.800Z,101288.66
2023-02-19T06:01:28.599Z,101283.72
2023-02-19T06:03:57.642Z,101294.97
2023-02-19T06:06:25.934Z,101299.47
2023-02-19T06:08:54.385Z,101306.59
2023-02-19T06:11:22.487Z,101303.94
2023-02-19T06:13:50.604Z,101307.03
2023-02-19T06:16:19.787Z,101307.03
2023-02-19T06:18:48.215Z,101304.75
2023-02-19T06:21:17.586Z,101313.94
2023-02-19T06:23:45.755Z,101311.28
2023-02-19T06:26:15.768Z,101316.38
2023-02-19T06:28:44.524Z,101315.56
2023-02-19T06:31:13.292Z,101307.75
2023-02-19T06:33:43.520Z,101324.16
2023-02-19T06:36:14.131Z,101323.31
2023-02-19T06:38:42.021Z,101312.03
2023-02-19T06:41:11.289Z,101320.44
2023-02-19T06:43:39.161Z,101319.63
2023-02-19T06:46:08.190Z,101328.63
2023-02-19T06:48:37.218Z,101329.63
2023-02-19T06:51:06.742Z,101332.69
2023-02-19T06:53:34.419Z,101331.06
2023-02-19T06:56:05.500Z,101332.69
2023-02-19T06:58:34.110Z,101331.28
2023-02-19T07:01:02.038Z,101341.06
2023-02-19T07:03:30.367Z,101345.75
2023-02-19T07:06:01.674Z,101342.69
2023-02-19T07:08:31.287Z,101349.03
2023-02-19T07:11:00.003Z,101345.75
2023-02-19T07:13:28.772Z,101346.75
2023-02-19T07:16:00.919Z,101345.34
2023-02-19T07:18:29.144Z,101350.88
2023-02-19T07:20:56.845Z,101350.66
2023-02-19T07:26:16.480Z,101361.28
2023-02-19T07:28:45.177Z,101364.16
2023-02-19T07:31:14.849Z,101370.88
2023-02-19T07:33:43.881Z,101373.53
2023-02-19T07:36:12.507Z,101372.53
2023-02-19T07:38:40.925Z,101380.69
2023-02-19T07:41:08.721Z,101378.84
2023-02-19T07:43:39.224Z,101382.13
2023-02-19T07:48:57.152Z,101390.28
2023-02-19T07:51:24.972Z,101406.00
2023-02-19T07:53:52.771Z,101398.88
2023-02-19T07:56:21.021Z,101402.97
2023-02-19T07:58:50.725Z,101408.91
2023-02-19T08:01:19.504Z,101414.44
2023-02-19T08:03:48.226Z,101411.75
2023-02-19T08:06:17.595Z,101436.72
2023-02-19T08:08:45.248Z,101426.91
2023-02-19T08:14:20.960Z,101438.56
2023-02-19T08:16:52.811Z,101439.19
2023-02-19T08:19:20.867Z,101453.28
2023-02-19T08:21:48.740Z,101452.03
2023-02-19T08:24:16.493Z,101458.97
2023-02-19T08:26:44.187Z,101469.22
2023-02-19T08:29:11.894Z,101464.72
2023-02-19T08:31:41.394Z,101469.03
2023-02-19T08:34:09.070Z,101473.31
2023-02-19T08:36:36.790Z,101480.09
2023-02-19T08:39:05.253Z,101475.75
2023-02-19T08:41:32.999Z,101479.06
2023-02-19T08:44:00.709Z,101481.94
2023-02-19T08:46:28.961Z,101490.50
2023-02-19T08:48:58.246Z,101489.69
2023-02-19T08:51:26.017Z,101500.94
2023-02-19T08:53:54.206Z,101507.88
2023-02-19T08:56:21.878Z,101508.97
2023-02-19T08:58:49.507Z,101505.72
2023-02-19T09:01:19.751Z,101513.50
2023-02-19T09:03:47.471Z,101523.91
2023-02-19T09:06:18.932Z,101524.16
2023-02-19T09:08:48.333Z,101514.19
2023-02-19T09:11:16.496Z,101531.50
2023-02-19T09:13:44.847Z,101517.59
2023-02-19T09:16:13.099Z,101512.69
2023-02-19T09:18:41.133Z,101510.19
2023-02-19T09:21:09.026Z,101513.06
2023-02-19T09:23:39.069Z,101523.69
2023-02-19T09:26:09.977Z,101531.03
2023-02-19T09:28:41.782Z,101535.06
2023-02-19T09:31:12.746Z,101535.06
2023-02-19T09:33:43.729Z,101538.09
2023-02-19T09:36:12.104Z,101536.09
2023-02-19T09:38:41.108Z,101538.09
2023-02-19T09:41:11.064Z,101534.44
2023-02-19T09:43:38.944Z,101526.47
2023-02-19T09:46:13.899Z,101529.75
2023-02-19T09:48:41.598Z,101529.31
2023-02-19T09:51:11.160Z,101521.56
2023-02-19T09:53:43.574Z,101518.13
2023-02-19T09:56:11.532Z,101522.81
2023-02-19T09:58:48.592Z,101538.34
2023-02-19T10:01:16.714Z,101533.25
2023-02-19T10:03:47.078Z,101543.63
2023-02-19T10:06:20.736Z,101537.72
2023-02-19T10:08:51.602Z,101539.00
2023-02-19T10:11:20.810Z,101537.16
2023-02-19T10:13:51.828Z,101544.56
2023-02-19T10:16:25.789Z,101554.16
2023-02-19T10:18:54.091Z,101558.44
2023-02-19T10:21:25.576Z,101556.25
2023-02-19T10:23:56.635Z,101551.75
2023-02-19T10:26:24.872Z,101563.44
2023-02-19T10:28:54.638Z,101572.03
2023-02-19T10:31:25.091Z,101564.69
2023-02-19T10:33:55.154Z,101567.34
2023-02-19T10:36:30.539Z,101568.78
2023-02-19T10:39:02.979Z,101577.41
2023-02-19T10:41:31.761Z,101581.09
2023-02-19T10:44:07.727Z,101574.91
2023-02-19T10:46:38.426Z,101581.09
2023-02-19T10:49:09.077Z,101588.84
2023-02-19T10:51:39.369Z,101596.63
2023-02-19T10:54:18.949Z,101597.28
2023-02-19T10:56:46.508Z,101599.16
2023-02-19T10:59:25.906Z,101604.06
2023-02-19T11:01:58.508Z,101609.19
2023-02-19T11:04:28.382Z,101613.25
2023-02-19T11:06:57.381Z,101615.09
2023-02-19T11:09:30.140Z,101608.38
2023-02-19T11:11:59.511Z,101620.00
2023-02-19T11:14:30.976Z,101607.56
2023-02-19T11:17:00.458Z,101616.34
2023-02-19T11:19:32.836Z,101623.97
2023-02-19T11:22:01.886Z,101622.13
2023-02-19T11:24:35.309Z,101624.78
2023-02-19T11:27:05.546Z,101627.25
2023-02-19T11:29:34.866Z,101629.91
2023-02-19T11:32:25.893Z,101629.50
2023-02-19T11:35:14.291Z,101624.84
2023-02-19T11:37:55.609Z,101624.63
2023-02-19T11:40:36.440Z,101633.22
2023-02-19T11:43:14.792Z,101630.41
2023-02-19T11:45:49.528Z,101637.34
2023-02-19T11:48:38.104Z,101634.50
2023-02-19T11:51:23.334Z,101636.94
2023-02-19T11:54:04.283Z,101635.31
2023-02-19T11:56:37.312Z,101637.16
2023-02-19T11:59:11.746Z,101628.34
2023-02-19T12:02:03.627Z,101625.50
2023-02-19T12:04:49.625Z,101617.72
2023-02-19T12:07:29.438Z,101603.41
2023-02-19T12:10:09.542Z,101592.78
2023-02-19T12:12:59.205Z,101581.28
2023-02-19T12:15:41.644Z,101584.81
2023-02-19T12:18:36.301Z,101582.13
2023-02-19T12:21:19.119Z,101586.19
2023-02-19T12:24:09.706Z,101587.06
2023-02-19T12:26:47.834Z,101589.47
2023-02-19T12:29:36.878Z,101583.50
2023-02-19T12:32:26.570Z,101577.38
2023-02-19T12:35:20.861Z,101572.66
2023-02-19T12:37:54.477Z,101575.16
2023-02-19T12:40:35.792Z,101594.78
2023-02-19T12:43:13.153Z,101605.59
2023-02-19T12:45:47.354Z,101612.75
2023-02-19T12:48:25.039Z,101606.63
2023-02-19T12:50:57.949Z,101615.59
2023-02-19T12:53:41.573Z,101611.69
2023-02-19T12:56:15.165Z,101611.84
2023-02-19T12:58:47.456Z,101627.38
2023-02-19T13:01:23.389Z,101634.06
2023-02-19T13:03:55.587Z,101626.91
2023-02-19T13:06:34.291Z,101631.81
2023-02-19T13:09:09.168Z,101638.31
2023-02-19T13:11:41.140Z,101651.41
2023-02-19T13:14:17.888Z,101654.25
2023-02-19T13:16:50.889Z,101656.09
2023-02-19T13:19:18.932Z,101653.44
2023-02-19T13:22:09.859Z,101639.78
2023-02-19T13:24:42.700Z,101638.75
2023-02-19T13:27:31.731Z,101645.72
2023-02-19T13:30:13.216Z,101651.22
2023-02-19T13:32:55.490Z,101649.78
2023-02-19T13:35:32.961Z,101655.72
2023-02-19T13:38:03.353Z,101658.75
2023-02-19T13:40:35.288Z,101660.59
2023-02-19T13:43:05.285Z,101659.94
2023-02-19T13:45:38.507Z,101667.56
2023-02-19T13:48:25.653Z,101659.78
2023-02-19T13:51:32.671Z,101657.94
2023-02-19T13:54:01.318Z,101672.63
2023-02-19T13:56:40.846Z,101669.34
2023-02-19T13:59:25.214Z,101662.81
2023-02-19T14:02:28.988Z,101664.44
2023-02-19T14:05:00.523Z,101660.97
2023-02-19T14:07:50.768Z,101665.25
2023-02-19T14:11:04.893Z,101665.66
2023-02-19T14:13:59.170Z,101669.75
2023-02-19T14:16:32.264Z,101678.75
2023-02-19T14:19:00.580Z,101680.13
2023-02-19T14:21:36.693Z,101675.22
2023-02-19T14:24:06.543Z,101685.84
2023-02-19T14:26:35.488Z,101687.84
2023-02-19T14:29:03.958Z,101695.81
2023-02-19T14:31:33.634Z,101679.50
2023-02-19T14:34:04.486Z,101681.72
2023-02-19T14:36:44.568Z,101683.81
2023-02-19T14:39:16.332Z,101704.03
2023-02-19T14:41:49.497Z,101697.50
2023-02-19T14:44:23.286Z,101717.06
2023-02-19T14:46:55.980Z,101710.53
2023-02-19T14:49:30.860Z,101725.81
2023-02-19T14:52:04.299Z,101726.47
2023-02-19T14:54:45.174Z,101723.34
2023-02-19T14:57:19.226Z,101725.56
2023-02-19T14:59:55.252Z,101726.56
2023-02-19T15:02:26.108Z,101719.63
2023-02-19T15:04:54.275Z,101723.91
2023-02-19T15:07:27.777Z,101699.75
2023-02-19T15:10:02.907Z,101704.28
2023-02-19T15:12:37.232Z,101714.56
2023-02-19T15:15:06.945Z,101717.84
2023-02-19T15:17:35.114Z,101719.94
2023-02-19T15:20:10.828Z,101711.41
2023-02-19T15:22:42.228Z,101709.75
2023-02-19T15:25:17.044Z,101708.13
2023-02-19T15:27:44.791Z,101710.13
2023-02-19T15:30:21.989Z,101713.78
2023-02-19T15:32:53.523Z,101701.53
2023-02-19T15:35:24.133Z,101692.91
2023-02-19T15:37:55.070Z,101701.91
2023-02-19T15:40:28.315Z,101694.59
2023-02-19T15:42:56.109Z,101696.38
2023-02-19T15:45:27.521Z,101694.59
2023-02-19T15:47:58.165Z,101687.59
2023-02-19T15:50:29.549Z,101687.19
2023-02-19T15:53:05.205Z,101686.16
2023-02-19T15:55:40.408Z,101695.31
2023-02-19T15:58:15.992Z,101707.50
2023-02-19T16:00:49.116Z,101705.06
2023-02-19T16:03:20.569Z,101711.38
2023-02-19T16:05:58.494Z,101708.91
2023-02-19T16:08:31.219Z,101723.00
2023-02-19T16:11:00.687Z,101716.25
2023-02-19T16:13:30.090Z,101712.75
2023-02-19T16:21:44.953Z,101719.25
2023-02-19T16:24:21.079Z,101730.69
2023-02-19T16:26:48.894Z,101731.09
2023-02-19T16:29:21.592Z,101738.03
2023-02-19T16:31:50.986Z,101724.50
2023-02-19T16:34:31.087Z,101726.53
2023-02-19T16:36:58.809Z,101731.19
2023-02-19T16:39:28.067Z,101726.91
2023-02-19T16:42:17.620Z,101731.59
2023-02-19T16:44:46.233Z,101729.91
2023-02-19T16:47:31.112Z,101718.88
2023-02-19T16:50:01.175Z,101736.44
2023-02-19T16:52:29.379Z,101737.34
2023-02-19T16:54:58.758Z,101734.06
2023-02-19T16:57:26.411Z,101750.44
2023-02-19T16:59:54.051Z,101749.63
2023-02-19T17:02:24.934Z,101757.41
2023-02-19T17:04:55.066Z,101753.28
2023-02-19T17:07:23.445Z,101758.56
2023-02-19T17:09:51.357Z,101762.09
2023-02-19T17:12:20.479Z,101755.28
2023-02-19T17:14:48.073Z,101764.28
2023-02-19T17:17:15.716Z,101763.47
2023-02-19T17:19:43.359Z,101761.34
2023-02-19T17:22:13.835Z,101763.00
2023-02-19T17:24:41.610Z,101758.69
2023-02-19T17:27:11.599Z,101763.00
2023-02-19T17:29:40.634Z,101765.03
2023-02-19T17:32:08.533Z,101760.69
2023-02-19T17:34:36.665Z,101766.19
2023-02-19T17:37:04.358Z,101769.66
2023-02-19T17:39:32.426Z,101778.84
2023-02-19T17:41:59.997Z,101774.69
2023-02-19T17:44:27.896Z,101768.09
2023-02-19T17:46:56.903Z,101769.78
2023-02-19T17:49:24.766Z,101777.91
2023-02-19T17:51:52.661Z,101773.41
2023-02-19T17:54:20.893Z,101781.56
2023-02-19T17:56:48.480Z,101788.91
2023-02-19T17:59:18.044Z,101790.91
2023-02-19T18:01:46.625Z,101794.22
2023-02-19T18:04:15.656Z,101799.88
2023-02-19T18:06:43.654Z,101802.72
2023-02-19T18:09:15.167Z,101809.66
2023-02-19T18:11:45.498Z,101811.31
2023-02-19T18:14:13.184Z,101802.06
2023-02-19T18:16:49.687Z,101806.38
2023-02-19T18:19:19.857Z,101797.75
2023-02-19T18:21:48.035Z,101790.25
2023-02-19T18:24:16.123Z,101782.50
2023-02-19T18:26:44.064Z,101783.84
2023-02-19T18:29:12.294Z,101779.91
2023-02-19T18:31:40.075Z,101775.63
2023-02-19T18:34:17.557Z,101780.47
2023-02-19T18:36:47.313Z,101787.41
2023-02-19T18:39:15.264Z,101789.78
2023-02-19T18:41:47.429Z,101787.31
2023-02-19T18:44:18.528Z,101777.84
2023-02-19T18:46:46.184Z,101774.56
2023-02-19T18:49:14.576Z,101775.72
2023-02-19T18:51:43.392Z,101786.53
2023-02-19T18:54:12.896Z,101798.78
2023-02-19T18:56:44.498Z,101799.97
2023-02-19T18:59:13.976Z,101803.44
2023-02-19T19:01:41.845Z,101797.97
2023-02-19T19:04:09.977Z,101797.31
2023-02-19T19:06:37.748Z,101794.00
2023-02-19T19:09:06.727Z,101803.97
2023-02-19T19:11:36.399Z,101788.25
2023-02-19T19:14:04.564Z,101796.66
2023-02-19T19:16:32.291Z,101789.09
2023-02-19T19:19:00.535Z,101790.44
2023-02-19T19:21:28.227Z,101788.13
2023-02-19T19:23:56.275Z,101793.81
2023-02-19T19:26:23.949Z,101801.94
2023-02-19T19:28:53.646Z,101796.19
2023-02-19T19:31:22.162Z,101797.47
2023-02-19T19:33:50.087Z,101797.81
2023-02-19T19:36:21.344Z,101800.00
2023-02-19T19:38:49.594Z,101797.06
2023-02-19T19:41:18.714Z,101793.09
2023-02-19T19:43:47.257Z,101785.53
2023-02-19T19:46:19.082Z,101784.50
2023-02-19T19:48:47.026Z,101793.00
2023-02-19T19:51:15.997Z,101789.06
2023-02-19T19:53:43.843Z,101797.00
2023-02-19T19:56:11.564Z,101792.06
2023-02-19T19:58:40.755Z,101793.22
2023-02-19T20:01:08.404Z,101785.47
2023-02-19T20:03:38.955Z,101787.31
2023-02-19T20:06:07.694Z,101788.00
2023-02-19T20:08:35.370Z,101796.28
2023-02-19T20:11:04.041Z,101791.34
2023-02-19T20:13:34.123Z,101776.63
2023-02-19T20:16:01.802Z,101780.28
2023-02-19T20:18:30.437Z,101792.41
2023-02-19T20:20:59.875Z,101797.03
2023-02-19T20:23:27.592Z,101799.22
2023-02-19T20:25:56.474Z,101792.94
2023-02-19T20:28:24.465Z,101794.91
2023-02-19T20:30:52.233Z,101789.81
2023-02-19T20:33:19.890Z,101783.69
2023-02-19T20:35:47.797Z,101790.97
2023-02-19T20:38:17.197Z,101795.09
2023-02-19T20:40:44.861Z,101797.94
2023-02-19T20:43:12.782Z,101803.22
2023-02-19T20:45:41.009Z,101807.69
2023-02-19T20:48:08.707Z,101810.50
2023-02-19T20:50:36.897Z,101806.22
2023-02-19T20:53:04.647Z,101813.34
2023-02-19T20:55:33.732Z,101801.09
2023-02-19T20:58:01.644Z,101804.91
2023-02-19T21:00:29.358Z,101803.44
2023-02-19T21:02:57.036Z,101795.66
2023-02-19T21:05:24.771Z,101800.31
2023-02-19T21:07:52.404Z,101804.97
2023-02-19T21:10:20.204Z,101801.66
2023-02-19T21:12:51.245Z,101798.38
2023-02-19T21:15:20.006Z,101801.34
2023-02-19T21:17:47.897Z,101808.66
2023-02-19T21:20:18.341Z,101795.75
2023-02-19T21:22:46.025Z,101795.75
2023-02-19T21:25:13.736Z,101804.03
2023-02-19T21:27:42.172Z,101792.47
2023-02-19T21:30:11.772Z,101796.63
2023-02-19T21:32:39.328Z,101799.09
2023-02-19T21:35:07.717Z,101786.19
2023-02-19T21:37:35.627Z,101789.19
2023-02-19T21:40:03.312Z,101779.94
2023-02-19T21:42:31.233Z,101783.25
2023-02-19T21:44:58.919Z,101780.09
2023-02-19T21:47:28.919Z,101786.56
2023-02-19T21:49:56.578Z,101794.53
2023-02-19T21:52:24.237Z,101785.28
2023-02-19T21:54:52.035Z,101791.56
2023-02-19T22:00:09.675Z,101792.25
2023-02-19T22:02:38.889Z,101791.75
2023-02-19T22:05:07.619Z,101785.97
2023-02-19T22:07:35.272Z,101786.34
2023-02-19T22:10:02.993Z,101789.13
2023-02-19T22:12:30.921Z,101793.59
2023-02-19T22:14:58.838Z,101802.53
2023-02-19T22:17:26.493Z,101800.88
2023-02-19T22:19:55.739Z,101794.59
2023-02-19T22:22:23.388Z,101816.09
2023-02-19T22:24:51.779Z,101805.69
2023-02-19T22:27:20.197Z,101804.34
2023-02-19T22:29:49.279Z,101799.25
2023-02-19T22:32:17.086Z,101787.66
2023-02-19T22:34:45.782Z,101795.78
2023-02-19T22:37:15.048Z,101788.84
2023-02-19T22:39:42.759Z,101775.78
2023-02-19T22:42:11.013Z,101777.78
2023-02-19T22:44:38.689Z,101779.09
2023-02-19T22:47:06.426Z,101786.38
2023-02-19T22:49:34.603Z,101782.06
2023-02-19T22:52:05.836Z,101775.47
2023-02-19T22:54:36.406Z,101798.59
2023-02-19T22:57:04.314Z,101793.66
2023-02-19T22:59:32.316Z,101788.50
2023-02-19T23:02:00.524Z,101794.97
2023-02-19T23:04:28.206Z,101791.50
2023-02-19T23:06:55.972Z,101782.09
2023-02-19T23:09:26.099Z,101791.00
2023-02-19T23:12:01.782Z,101790.00
2023-02-19T23:14:29.932Z,101794.66
2023-02-19T23:16:57.674Z,101785.22
2023-02-19T23:19:25.529Z,101781.94
2023-02-19T23:21:53.947Z,101773.31
2023-02-19T23:24:21.631Z,101772.84
2023-02-19T23:26:51.110Z,101772.84
2023-02-19T23:29:24.922Z,101769.53
2023-02-19T23:31:53.120Z,101780.44
2023-02-19T23:34:21.207Z,101764.25
2023-02-19T23:36:51.513Z,101763.25
2023-02-19T23:39:21.650Z,101748.41
2023-02-19T23:41:50.539Z,101762.44
2023-02-19T23:44:20.786Z,101754.69
2023-02-19T23:46:49.141Z,101749.41
2023-02-19T23:49:17.125Z,101756.34
2023-02-19T23:54:34.780Z,101753.34
2023-02-19T23:57:03.045Z,101752.69
2023-02-19T23:59:32.108Z,101754.69
